Terminal Aerodrome Forecast
Issued by NWS

Home | Current Version | Previous Version | Graphics & Text | Print | Product List | Glossary On
Versions: 1 2 3 4 5 6 7 8 9 10 11 12 13 14 15 16 17 18 19 20 21 22 23 24 25 26 27 28
000
FTUS45 KGGW 301125
TAFGDV
TAF
KGDV 301125Z 3012/3112 35005KT P6SM -SHRA OVC060
     FM301800 31011KT P6SM -SHRA OVC035
     FM310000 30017KT P6SM SCT120
     FM310600 27013KT P6SM BKN130
      AMD LTD TO CLD VIS AND WIND=

USA.gov is the U.S. government's official web portal to all federal, state and local government web resources and services.